Weather at John F Kennedy International Airport

Public forecast

Using degrees Fahrenheit for public forecast. Weather courtesy of forecast.io.

Current aviation weather report (METAR) for John F Kennedy International Airport

Retrieved 2021/10/22 05:51 UTC (1 hour ago):

KJFK 220551Z 20011KT 10SM FEW100 FEW150 SCT250 18/14 A2980 RMK AO2 SLP090 T01780139 10183 20161 56022

Aviation forecast (TAF) for John F Kennedy International Airport

Retrieved 2021/10/22 06:23 UTC (31 minutes ago):

TAF KJFK 220520Z 2206/2312 21010KT P6SM SCT150 SCT250 FM220900 24011KT P6SM SCT100 SCT250 FM221500 27010KT P6SM BKN060 FM222200 31009KT P6SM BKN060 FM230000 34008KT P6SM BKN060 FM230800 36005KT P6SM BKN060